Time;durP1;ratioP1;P1;durP2;ratioP2;P2;SDS_P1;SDS_P2;PMS_P1;PMS_P2;Temp;Humidity;BMP_temperature;BMP_pressure;BME280_temperature;BME280_humidity;BME280_pressure;Samples;Min_cycle;Max_cycle;Signal;HPM_P1;HPM_P2
2021/12/11 00:02:25;;;;;;;4.68;3.95;;;;;;;;;;8294135;28;20041;-64
2021/12/11 00:06:27;;;;;;;4.88;4.38;;;;;;;;;;8295844;28;20112;-64
2021/12/11 00:10:33;;;;;;;5.35;4.65;;;;;;;;;;8292297;28;20272;-64
2021/12/11 00:14:36;;;;;;;5.07;4.45;;;;;;;;;;8292856;28;20025;-64
2021/12/11 00:18:37;;;;;;;4.75;4.30;;;;;;;;;;8293917;28;20528;-64
2021/12/11 00:22:40;;;;;;;5.40;4.75;;;;;;;;;;8293508;28;20712;-64
2021/12/11 00:26:42;;;;;;;5.03;4.53;;;;;;;;;;8293079;28;20140;-64
2021/12/11 00:30:44;;;;;;;5.70;4.80;;;;;;;;;;8297545;28;20050;-64
2021/12/11 00:34:46;;;;;;;6.53;5.07;;;;;;;;;;8291977;28;20392;-64
2021/12/11 00:38:49;;;;;;;4.97;4.47;;;;;;;;;;8293427;28;20038;-64
2021/12/11 00:42:53;;;;;;;5.00;4.50;;;;;;;;;;8289930;28;20073;-64
2021/12/11 00:47:04;;;;;;;6.43;4.78;;;;;;;;;;8280636;28;21043;-64
2021/12/11 00:51:06;;;;;;;5.32;4.80;;;;;;;;;;8295945;28;20039;-64
2021/12/11 00:55:15;;;;;;;5.20;4.53;;;;;;;;;;8293260;28;20033;-64
2021/12/11 00:59:18;;;;;;;4.72;4.28;;;;;;;;;;8293616;28;20045;-65
2021/12/11 01:03:20;;;;;;;4.88;4.43;;;;;;;;;;8292417;28;20045;-64
2021/12/11 01:07:30;;;;;;;4.90;4.40;;;;;;;;;;8292189;28;20522;-64
2021/12/11 01:11:35;;;;;;;4.82;4.32;;;;;;;;;;8293727;28;20022;-64
2021/12/11 01:15:40;;;;;;;4.78;4.28;;;;;;;;;;8292321;28;20048;-64
2021/12/11 01:19:44;;;;;;;4.53;4.03;;;;;;;;;;8295729;28;20227;-64
2021/12/11 01:23:57;;;;;;;5.18;4.68;;;;;;;;;;8290388;28;20893;-64
2021/12/11 01:28:00;;;;;;;5.10;4.45;;;;;;;;;;8291484;28;20507;-64
2021/12/11 01:32:01;;;;;;;5.22;4.70;;;;;;;;;;8279078;28;20041;-64
2021/12/11 01:36:01;;;;;;;4.70;4.20;;;;;;;;;;8292128;28;20030;-64
2021/12/11 01:40:04;;;;;;;4.63;4.05;;;;;;;;;;8289297;28;20033;-64
2021/12/11 01:44:07;;;;;;;5.50;4.65;;;;;;;;;;8289216;28;20369;-64
2021/12/11 01:48:07;;;;;;;5.78;5.03;;;;;;;;;;8289010;28;20056;-64
2021/12/11 01:52:14;;;;;;;4.47;4.07;;;;;;;;;;8292237;28;20488;-64
2021/12/11 01:56:16;;;;;;;4.78;4.25;;;;;;;;;;8294261;28;20029;-64
2021/12/11 02:00:20;;;;;;;5.72;4.60;;;;;;;;;;8292990;28;20058;-64
2021/12/11 02:04:23;;;;;;;4.93;4.43;;;;;;;;;;8291895;28;20030;-64
2021/12/11 02:08:28;;;;;;;4.63;3.90;;;;;;;;;;8287281;28;20526;-64
2021/12/11 02:12:34;;;;;;;5.30;4.30;;;;;;;;;;8292686;28;20025;-64
2021/12/11 02:16:42;;;;;;;4.95;4.32;;;;;;;;;;8289664;28;20117;-64
2021/12/11 02:20:48;;;;;;;5.95;4.93;;;;;;;;;;8290017;28;20033;-64
2021/12/11 02:25:00;;;;;;;6.18;5.40;;;;;;;;;;8293270;28;20108;-64
2021/12/11 02:29:06;;;;;;;5.68;4.93;;;;;;;;;;8290002;28;20029;-64
2021/12/11 02:33:09;;;;;;;5.25;4.38;;;;;;;;;;8290471;28;20041;-64
2021/12/11 02:37:19;;;;;;;7.13;6.20;;;;;;;;;;8292804;28;20469;-64
2021/12/11 02:41:28;;;;;;;6.13;5.32;;;;;;;;;;8289007;28;20025;-65
2021/12/11 02:45:31;;;;;;;4.68;4.18;;;;;;;;;;8288459;28;20047;-64
2021/12/11 02:49:39;;;;;;;5.75;4.82;;;;;;;;;;8289227;28;20079;-64
2021/12/11 02:53:42;;;;;;;5.97;5.18;;;;;;;;;;8290305;28;20029;-64
2021/12/11 02:57:45;;;;;;;9.03;6.30;;;;;;;;;;8289543;28;20029;-64
2021/12/11 03:01:51;;;;;;;5.95;5.32;;;;;;;;;;8291080;28;20040;-64
2021/12/11 03:06:03;;;;;;;6.05;5.10;;;;;;;;;;8287265;28;20067;-64
2021/12/11 03:10:06;;;;;;;7.32;5.80;;;;;;;;;;8290813;28;20029;-64
2021/12/11 03:14:12;;;;;;;5.90;5.25;;;;;;;;;;8287717;28;20029;-64
2021/12/11 03:18:13;;;;;;;6.55;5.35;;;;;;;;;;8286716;28;20136;-64
2021/12/11 03:22:19;;;;;;;7.60;5.60;;;;;;;;;;8291121;28;20064;-64
2021/12/11 03:26:20;;;;;;;7.28;5.82;;;;;;;;;;8289321;28;20036;-64
2021/12/11 03:30:23;;;;;;;8.05;5.70;;;;;;;;;;8287309;28;20505;-63
2021/12/11 03:34:24;;;;;;;7.53;6.07;;;;;;;;;;8290224;28;20072;-64
2021/12/11 03:38:25;;;;;;;9.32;6.53;;;;;;;;;;8286481;28;20025;-64
2021/12/11 03:42:30;;;;;;;8.02;6.38;;;;;;;;;;8288617;28;20022;-64
2021/12/11 03:46:30;;;;;;;11.10;7.15;;;;;;;;;;8288905;28;20049;-64
2021/12/11 03:50:31;;;;;;;11.30;8.38;;;;;;;;;;8287952;28;20037;-64
2021/12/11 03:54:33;;;;;;;9.93;7.72;;;;;;;;;;8288652;28;20037;-64
2021/12/11 03:58:33;;;;;;;10.07;8.52;;;;;;;;;;8286821;28;20116;-64
2021/12/11 04:02:34;;;;;;;8.90;7.80;;;;;;;;;;8289045;28;20129;-64
2021/12/11 04:06:34;;;;;;;10.77;8.18;;;;;;;;;;8287371;28;20762;-64
2021/12/11 04:10:35;;;;;;;10.00;8.00;;;;;;;;;;8288485;28;20355;-64
2021/12/11 04:14:38;;;;;;;11.15;7.95;;;;;;;;;;8278505;28;20342;-64
2021/12/11 04:18:38;;;;;;;10.70;7.90;;;;;;;;;;8292293;28;20029;-64
2021/12/11 04:22:38;;;;;;;9.87;7.77;;;;;;;;;;8294046;28;20017;-64
2021/12/11 04:26:39;;;;;;;9.98;7.22;;;;;;;;;;8293762;28;20411;-64
2021/12/11 04:30:40;;;;;;;13.45;9.88;;;;;;;;;;8293051;28;20129;-64
2021/12/11 04:34:40;;;;;;;11.23;9.05;;;;;;;;;;8295075;28;20010;-64
2021/12/11 04:38:41;;;;;;;11.93;9.07;;;;;;;;;;8292956;28;20044;-64
2021/12/11 04:46:45;;;;;;;13.40;9.77;;;;;;;;;;8291412;28;20055;-64
2021/12/11 04:51:01;;;;;;;12.80;9.23;;;;;;;;;;8290956;28;20668;-64
2021/12/11 04:59:55;;;;;;;13.10;9.63;;;;;;;;;;8293244;28;20108;-64
2021/12/11 05:04:13;;;;;;;13.68;9.82;;;;;;;;;;8291657;28;20687;-64
2021/12/11 05:16:25;;;;;;;15.70;9.88;;;;;;;;;;8288763;28;20866;-64
2021/12/11 05:20:27;;;;;;;14.50;9.70;;;;;;;;;;8291965;28;20115;-63
2021/12/11 05:24:28;;;;;;;14.55;8.73;;;;;;;;;;8292672;28;20033;-63
2021/12/11 05:28:28;;;;;;;11.20;8.32;;;;;;;;;;8289634;28;20068;-63
2021/12/11 05:32:29;;;;;;;11.05;7.43;;;;;;;;;;8290442;28;20041;-63
2021/12/11 05:36:31;;;;;;;8.60;6.45;;;;;;;;;;8291592;28;20762;-64
2021/12/11 05:40:32;;;;;;;12.55;8.05;;;;;;;;;;8288632;28;20463;-63
2021/12/11 05:44:32;;;;;;;10.50;7.25;;;;;;;;;;8289903;28;20436;-64
2021/12/11 05:48:33;;;;;;;10.60;7.80;;;;;;;;;;8287650;28;20041;-64
2021/12/11 05:52:33;;;;;;;12.15;8.25;;;;;;;;;;8290958;28;21818;-64
2021/12/11 05:56:36;;;;;;;12.90;8.02;;;;;;;;;;8287655;28;20760;-64
2021/12/11 06:00:46;;;;;;;15.15;8.68;;;;;;;;;;8289181;28;20091;-64
2021/12/11 06:04:48;;;;;;;11.80;7.32;;;;;;;;;;8291681;28;20026;-64
2021/12/11 06:08:48;;;;;;;11.00;7.43;;;;;;;;;;8294169;28;20028;-64
2021/12/11 06:12:51;;;;;;;13.55;9.32;;;;;;;;;;8288867;28;20053;-64
2021/12/11 06:16:52;;;;;;;11.02;7.88;;;;;;;;;;8291223;28;20479;-64
2021/12/11 06:20:53;;;;;;;11.70;8.13;;;;;;;;;;8289693;28;20119;-64
2021/12/11 06:24:53;;;;;;;12.25;8.07;;;;;;;;;;8287971;28;20033;-64
2021/12/11 06:28:54;;;;;;;12.27;8.32;;;;;;;;;;8291863;28;20245;-64
2021/12/11 06:32:55;;;;;;;10.30;7.73;;;;;;;;;;8292035;28;20040;-64
2021/12/11 06:36:55;;;;;;;13.52;9.02;;;;;;;;;;8288088;28;20366;-64
2021/12/11 06:40:55;;;;;;;15.70;9.25;;;;;;;;;;8290955;28;20063;-64
2021/12/11 06:44:56;;;;;;;13.60;9.50;;;;;;;;;;8290114;28;20060;-64
2021/12/11 06:48:57;;;;;;;16.70;9.75;;;;;;;;;;8285950;28;20049;-64
2021/12/11 06:52:58;;;;;;;13.02;8.52;;;;;;;;;;8291181;28;21219;-64
2021/12/11 06:56:58;;;;;;;11.43;7.85;;;;;;;;;;8289237;28;21003;-64
2021/12/11 07:00:59;;;;;;;14.00;8.88;;;;;;;;;;8289007;28;20520;-64
2021/12/11 07:04:59;;;;;;;11.50;7.75;;;;;;;;;;8289675;28;20617;-63
2021/12/11 07:09:00;;;;;;;11.82;8.52;;;;;;;;;;8289169;28;20131;-64
2021/12/11 07:13:00;;;;;;;13.45;8.70;;;;;;;;;;8285026;28;20021;-64
2021/12/11 07:17:01;;;;;;;14.55;8.02;;;;;;;;;;8288750;28;20037;-64
2021/12/11 07:21:02;;;;;;;13.30;8.07;;;;;;;;;;8290358;28;20029;-64
2021/12/11 07:25:31;;;;;;;10.73;7.63;;;;;;;;;;8289712;28;20087;-64
2021/12/11 07:29:32;;;;;;;14.63;9.25;;;;;;;;;;8281420;28;20037;-64
2021/12/11 07:33:32;;;;;;;15.27;8.40;;;;;;;;;;8286821;28;20042;-64
2021/12/11 07:37:32;;;;;;;10.98;7.60;;;;;;;;;;8288078;28;20026;-64
2021/12/11 07:41:33;;;;;;;12.95;7.57;;;;;;;;;;8289803;28;20033;-64
2021/12/11 07:45:34;;;;;;;13.23;8.18;;;;;;;;;;8288590;28;21200;-64
2021/12/11 07:49:35;;;;;;;11.25;7.18;;;;;;;;;;8290871;28;20025;-64
2021/12/11 07:53:35;;;;;;;11.32;7.03;;;;;;;;;;8293267;28;20571;-64
2021/12/11 07:57:36;;;;;;;13.40;7.63;;;;;;;;;;8294329;28;20022;-64
2021/12/11 08:01:42;;;;;;;15.52;7.95;;;;;;;;;;8292783;28;20295;-64
2021/12/11 08:05:44;;;;;;;14.57;9.40;;;;;;;;;;8292311;28;20402;-64
2021/12/11 08:09:44;;;;;;;13.80;7.95;;;;;;;;;;8296570;28;20037;-63
2021/12/11 08:13:46;;;;;;;15.07;8.00;;;;;;;;;;8293348;28;20029;-64
2021/12/11 08:17:52;;;;;;;13.00;8.38;;;;;;;;;;8291341;28;20280;-64
2021/12/11 08:21:53;;;;;;;15.27;8.75;;;;;;;;;;8294543;28;20032;-64
2021/12/11 08:25:54;;;;;;;12.15;7.72;;;;;;;;;;8294907;28;20021;-64
2021/12/11 08:29:55;;;;;;;10.75;7.68;;;;;;;;;;8292638;28;20054;-64
2021/12/11 08:33:55;;;;;;;13.93;7.55;;;;;;;;;;8291165;28;20037;-64
2021/12/11 08:37:56;;;;;;;12.20;8.25;;;;;;;;;;8291421;28;20039;-64
2021/12/11 08:41:57;;;;;;;11.07;7.47;;;;;;;;;;8292063;28;20747;-64
2021/12/11 08:46:08;;;;;;;11.57;7.38;;;;;;;;;;8288929;28;20092;-64
2021/12/11 08:50:10;;;;;;;11.98;7.22;;;;;;;;;;8292217;28;20051;-64
2021/12/11 08:54:11;;;;;;;8.93;6.07;;;;;;;;;;8292511;28;20036;-64
2021/12/11 08:58:14;;;;;;;11.55;6.30;;;;;;;;;;8293123;28;20520;-64
2021/12/11 09:02:25;;;;;;;11.30;7.57;;;;;;;;;;8287762;28;20095;-64
2021/12/11 09:06:36;;;;;;;9.35;6.38;;;;;;;;;;8293641;28;20111;-64
2021/12/11 09:10:43;;;;;;;8.13;5.88;;;;;;;;;;8292736;28;21178;-65
2021/12/11 09:14:55;;;;;;;9.57;6.03;;;;;;;;;;8290610;28;20468;-64
2021/12/11 09:19:02;;;;;;;10.05;5.82;;;;;;;;;;8290080;28;20042;-64
2021/12/11 09:23:24;;;;;;;8.85;6.30;;;;;;;;;;8289839;28;20136;-64
2021/12/11 09:27:27;;;;;;;9.82;6.35;;;;;;;;;;8289739;28;20037;-64
2021/12/11 09:31:37;;;;;;;8.40;5.82;;;;;;;;;;8289947;28;20128;-64
2021/12/11 09:35:43;;;;;;;10.20;6.05;;;;;;;;;;8291982;28;20021;-64
2021/12/11 09:39:43;;;;;;;9.88;5.30;;;;;;;;;;8293963;28;20065;-64
2021/12/11 09:43:46;;;;;;;9.70;5.63;;;;;;;;;;8290716;28;20046;-64
2021/12/11 09:47:51;;;;;;;8.43;5.05;;;;;;;;;;8286780;28;20147;-64
2021/12/11 09:52:00;;;;;;;8.05;5.60;;;;;;;;;;8291907;28;20022;-64
2021/12/11 09:56:02;;;;;;;9.88;6.35;;;;;;;;;;8288181;28;20037;-64
2021/12/11 10:00:09;;;;;;;11.07;6.65;;;;;;;;;;8291534;28;20036;-64
2021/12/11 10:04:16;;;;;;;13.77;7.30;;;;;;;;;;8289495;28;20487;-64
2021/12/11 10:08:35;;;;;;;10.85;7.35;;;;;;;;;;8287752;28;20525;-64
2021/12/11 10:12:37;;;;;;;13.30;7.22;;;;;;;;;;8288909;28;20025;-64
2021/12/11 10:16:41;;;;;;;12.57;7.75;;;;;;;;;;8286698;28;20510;-64
2021/12/11 10:20:44;;;;;;;13.10;7.25;;;;;;;;;;8285990;28;20063;-64
2021/12/11 10:24:45;;;;;;;14.10;7.22;;;;;;;;;;8286881;28;20034;-64
2021/12/11 10:28:47;;;;;;;10.73;7.55;;;;;;;;;;8280958;28;20637;-64
2021/12/11 10:32:48;;;;;;;10.90;7.00;;;;;;;;;;8282393;28;20072;-64
2021/12/11 10:36:54;;;;;;;12.45;7.30;;;;;;;;;;8286188;28;20957;-65
2021/12/11 10:40:55;;;;;;;13.25;7.38;;;;;;;;;;8285075;28;20317;-64
2021/12/11 10:44:58;;;;;;;10.73;7.15;;;;;;;;;;8282414;28;20417;-64
2021/12/11 10:48:59;;;;;;;13.27;6.20;;;;;;;;;;8281054;28;20049;-56
2021/12/11 10:53:00;;;;;;;11.20;6.57;;;;;;;;;;8283687;28;20021;-64
2021/12/11 10:57:00;;;;;;;9.73;6.45;;;;;;;;;;8284039;28;20567;-64
2021/12/11 11:01:04;;;;;;;10.80;6.90;;;;;;;;;;8282625;28;20053;-64
2021/12/11 11:05:07;;;;;;;15.40;7.40;;;;;;;;;;8281575;28;20276;-64
2021/12/11 11:09:09;;;;;;;11.95;7.50;;;;;;;;;;8285041;28;20072;-64
2021/12/11 11:13:11;;;;;;;11.38;7.68;;;;;;;;;;8282255;28;20112;-65
2021/12/11 11:17:14;;;;;;;11.25;6.97;;;;;;;;;;8282914;28;20041;-65
2021/12/11 11:21:16;;;;;;;11.65;7.60;;;;;;;;;;8286889;28;20037;-64
2021/12/11 11:25:22;;;;;;;11.15;6.80;;;;;;;;;;8287607;28;20039;-64
2021/12/11 11:29:23;;;;;;;11.18;6.90;;;;;;;;;;8290845;28;20309;-64
2021/12/11 11:33:24;;;;;;;9.32;6.47;;;;;;;;;;8278789;28;20532;-64
2021/12/11 11:37:24;;;;;;;6.65;5.32;;;;;;;;;;8290640;28;20056;-64
2021/12/11 11:41:27;;;;;;;8.85;5.95;;;;;;;;;;8287768;28;20102;-64
2021/12/11 11:45:28;;;;;;;7.70;5.30;;;;;;;;;;8287852;28;20150;-64
2021/12/11 11:49:28;;;;;;;10.02;5.22;;;;;;;;;;8293005;28;20026;-64
2021/12/11 11:53:29;;;;;;;6.72;4.78;;;;;;;;;;8292923;28;20024;-64
2021/12/11 11:57:34;;;;;;;7.25;4.90;;;;;;;;;;8290423;28;20021;-64
2021/12/11 12:01:38;;;;;;;7.03;4.45;;;;;;;;;;8292172;28;20045;-64
2021/12/11 12:05:39;;;;;;;6.13;4.55;;;;;;;;;;8289640;28;20589;-65
2021/12/11 12:09:41;;;;;;;9.40;5.05;;;;;;;;;;8289334;28;20184;-65
2021/12/11 12:13:42;;;;;;;6.93;4.97;;;;;;;;;;8286755;28;20890;-65
2021/12/11 12:17:42;;;;;;;7.53;5.20;;;;;;;;;;8286521;28;20033;-65
2021/12/11 12:21:43;;;;;;;8.02;5.43;;;;;;;;;;8291665;28;20796;-65
2021/12/11 12:25:44;;;;;;;8.93;5.70;;;;;;;;;;8287374;28;20570;-65
2021/12/11 12:29:45;;;;;;;10.05;5.80;;;;;;;;;;8289977;28;20026;-65
2021/12/11 12:33:45;;;;;;;10.88;7.05;;;;;;;;;;8290140;28;20052;-65
2021/12/11 12:37:49;;;;;;;10.75;6.47;;;;;;;;;;8290463;28;20677;-65
2021/12/11 12:41:57;;;;;;;13.48;7.20;;;;;;;;;;8291474;28;20856;-65
2021/12/11 12:45:58;;;;;;;11.70;7.13;;;;;;;;;;8288981;28;20045;-65
2021/12/11 12:50:00;;;;;;;11.75;7.35;;;;;;;;;;8291826;28;20032;-65
2021/12/11 12:54:02;;;;;;;13.52;8.10;;;;;;;;;;8289211;28;20026;-65
2021/12/11 12:58:04;;;;;;;11.27;7.68;;;;;;;;;;8289021;28;20112;-64
2021/12/11 13:02:07;;;;;;;11.77;6.63;;;;;;;;;;8286210;28;20550;-65
2021/12/11 13:06:10;;;;;;;11.90;7.20;;;;;;;;;;8286207;28;20298;-65
2021/12/11 13:10:14;;;;;;;10.80;7.03;;;;;;;;;;8287314;28;20033;-65
2021/12/11 13:14:14;;;;;;;10.03;7.10;;;;;;;;;;8288043;28;20530;-64
2021/12/11 13:18:16;;;;;;;12.02;7.90;;;;;;;;;;8284546;28;20041;-64
2021/12/11 13:22:31;;;;;;;13.23;8.30;;;;;;;;;;8287499;28;20030;-65
2021/12/11 13:26:31;;;;;;;;;;;;;;;;;;8289609;28;20060;-64
2021/12/11 13:30:34;;;;;;;11.82;7.97;;;;;;;;;;8288192;28;20361;-64
2021/12/11 13:34:36;;;;;;;12.73;7.65;;;;;;;;;;8286164;28;20065;-65
2021/12/11 13:38:37;;;;;;;10.23;7.22;;;;;;;;;;8283057;28;20103;-64
2021/12/11 13:42:37;;;;;;;14.82;7.93;;;;;;;;;;8287268;28;20583;-64
2021/12/11 13:46:38;;;;;;;12.50;8.80;;;;;;;;;;8282221;28;20036;-64
2021/12/11 13:50:42;;;;;;;12.02;7.97;;;;;;;;;;8288395;28;20025;-64
2021/12/11 13:54:42;;;;;;;14.40;8.57;;;;;;;;;;8286419;28;20486;-65
2021/12/11 13:58:43;;;;;;;18.17;8.90;;;;;;;;;;8285972;28;20498;-65
2021/12/11 14:02:43;;;;;;;12.50;8.38;;;;;;;;;;8285206;28;20406;-64
2021/12/11 14:06:49;;;;;;;12.40;9.07;;;;;;;;;;8288673;28;20666;-65
2021/12/11 14:10:50;;;;;;;13.98;9.18;;;;;;;;;;8285676;28;20280;-65
2021/12/11 14:14:51;;;;;;;12.27;8.40;;;;;;;;;;8287472;28;20386;-64
2021/12/11 14:18:51;;;;;;;12.93;8.65;;;;;;;;;;8282875;28;20033;-64
2021/12/11 14:22:52;;;;;;;14.30;8.60;;;;;;;;;;8285227;28;20473;-64
2021/12/11 14:26:52;;;;;;;11.75;8.52;;;;;;;;;;8285588;28;20358;-65
2021/12/11 14:30:54;;;;;;;15.77;9.23;;;;;;;;;;8275271;28;20108;-64
2021/12/11 14:34:55;;;;;;;12.63;8.55;;;;;;;;;;8280144;28;20625;-64
2021/12/11 14:39:03;;;;;;;12.30;8.15;;;;;;;;;;8281433;28;20493;-64
2021/12/11 14:43:04;;;;;;;12.40;8.40;;;;;;;;;;8281102;28;20523;-64
2021/12/11 14:47:07;;;;;;;14.00;7.82;;;;;;;;;;8281454;28;20055;-64
2021/12/11 14:51:10;;;;;;;11.75;7.82;;;;;;;;;;8281462;28;20091;-65
2021/12/11 14:55:24;;;;;;;10.83;7.33;;;;;;;;;;8279499;28;20036;-64
2021/12/11 14:59:29;;;;;;;11.60;7.35;;;;;;;;;;8278785;28;20037;-65
2021/12/11 15:03:29;;;;;;;10.45;6.75;;;;;;;;;;8279391;28;20045;-66
2021/12/11 15:07:30;;;;;;;8.50;6.13;;;;;;;;;;8266629;28;20080;-64
2021/12/11 15:11:32;;;;;;;17.85;10.55;;;;;;;;;;8282602;28;20610;-64
2021/12/11 15:15:32;;;;;;;10.38;6.97;;;;;;;;;;8277888;28;20045;-64
2021/12/11 15:19:33;;;;;;;10.95;5.93;;;;;;;;;;8282792;28;20029;-64
2021/12/11 15:23:34;;;;;;;10.35;6.18;;;;;;;;;;8283267;28;20661;-65
2021/12/11 15:27:35;;;;;;;10.93;6.15;;;;;;;;;;8278614;28;20797;-64
2021/12/11 15:31:37;;;;;;;9.38;6.00;;;;;;;;;;8277768;28;20064;-64
2021/12/11 15:35:39;;;;;;;11.05;6.57;;;;;;;;;;8265153;28;20079;-64
2021/12/11 15:39:41;;;;;;;9.70;6.47;;;;;;;;;;8281755;28;20432;-64
2021/12/11 15:43:44;;;;;;;8.32;5.90;;;;;;;;;;8280897;28;20434;-64
2021/12/11 15:47:45;;;;;;;9.73;5.32;;;;;;;;;;8277404;28;20419;-64
2021/12/11 15:51:45;;;;;;;7.28;5.78;;;;;;;;;;8276900;28;20030;-64
2021/12/11 15:55:46;;;;;;;10.68;6.57;;;;;;;;;;8279097;28;20272;-64
2021/12/11 15:59:47;;;;;;;9.95;5.45;;;;;;;;;;8279201;28;20283;-64
2021/12/11 16:03:48;;;;;;;10.27;5.20;;;;;;;;;;8281327;28;20417;-64
2021/12/11 16:07:48;;;;;;;8.00;5.25;;;;;;;;;;8283883;28;20090;-64
2021/12/11 16:11:51;;;;;;;8.95;4.72;;;;;;;;;;8282515;28;20021;-65
2021/12/11 16:15:52;;;;;;;6.18;4.53;;;;;;;;;;8280356;28;20521;-64
2021/12/11 16:19:56;;;;;;;10.00;4.22;;;;;;;;;;8283487;28;20021;-64
2021/12/11 16:23:59;;;;;;;8.70;4.43;;;;;;;;;;8282803;28;20385;-65
2021/12/11 16:28:02;;;;;;;9.52;5.13;;;;;;;;;;8281087;28;20608;-64
2021/12/11 16:32:03;;;;;;;10.07;4.85;;;;;;;;;;8283104;28;20040;-64
2021/12/11 16:36:04;;;;;;;12.00;5.63;;;;;;;;;;8284095;28;20021;-64
2021/12/11 16:40:06;;;;;;;12.63;5.45;;;;;;;;;;8287606;28;20115;-64
2021/12/11 16:44:09;;;;;;;10.80;5.30;;;;;;;;;;8282086;28;20036;-64
2021/12/11 16:48:11;;;;;;;10.63;4.70;;;;;;;;;;8285729;28;20151;-64
2021/12/11 16:52:13;;;;;;;12.15;5.57;;;;;;;;;;8280566;28;20389;-65
2021/12/11 16:56:19;;;;;;;14.43;5.55;;;;;;;;;;8285430;28;20044;-64
2021/12/11 17:00:21;;;;;;;11.63;4.93;;;;;;;;;;8283267;28;20065;-65
2021/12/11 17:04:22;;;;;;;7.47;4.13;;;;;;;;;;8284035;28;20090;-64
2021/12/11 17:08:22;;;;;;;9.20;4.60;;;;;;;;;;8282958;28;20048;-64
2021/12/11 17:12:23;;;;;;;14.38;4.90;;;;;;;;;;8281857;28;20408;-64
2021/12/11 17:16:23;;;;;;;11.27;5.13;;;;;;;;;;8276939;28;20157;-64
2021/12/11 17:20:24;;;;;;;12.18;4.93;;;;;;;;;;8282716;28;20484;-64
2021/12/11 17:24:30;;;;;;;13.30;6.15;;;;;;;;;;8280588;28;20026;-64
2021/12/11 17:28:36;;;;;;;9.77;4.93;;;;;;;;;;8280069;28;20483;-64
2021/12/11 17:32:36;;;;;;;13.23;4.25;;;;;;;;;;8283051;28;20363;-64
2021/12/11 17:36:36;;;;;;;9.52;4.72;;;;;;;;;;8286772;28;20033;-64
2021/12/11 17:40:37;;;;;;;9.45;4.80;;;;;;;;;;8279508;28;20025;-64
2021/12/11 17:44:38;;;;;;;13.50;4.85;;;;;;;;;;8281792;28;20040;-64
2021/12/11 17:48:39;;;;;;;9.23;4.78;;;;;;;;;;8278873;28;20401;-64
2021/12/11 17:52:39;;;;;;;9.63;5.40;;;;;;;;;;8284447;28;20025;-64
2021/12/11 17:56:39;;;;;;;7.32;4.72;;;;;;;;;;8282354;28;20506;-64
2021/12/11 18:00:42;;;;;;;13.82;6.15;;;;;;;;;;8280136;28;20038;-64
2021/12/11 18:04:48;;;;;;;9.95;5.13;;;;;;;;;;8266574;28;20048;-64
2021/12/11 18:08:48;;;;;;;14.77;7.25;;;;;;;;;;8284712;28;20792;-64
2021/12/11 18:13:02;;;;;;;13.05;5.75;;;;;;;;;;8279553;28;20492;-65
2021/12/11 18:17:02;;;;;;;10.87;6.93;;;;;;;;;;8283291;28;20044;-65
2021/12/11 18:21:10;;;;;;;16.92;9.18;;;;;;;;;;8280882;28;20264;-64
2021/12/11 18:25:12;;;;;;;20.60;9.90;;;;;;;;;;8280178;28;20128;-64
2021/12/11 18:29:18;;;;;;;21.13;8.73;;;;;;;;;;8282189;28;20442;-64
2021/12/11 18:33:23;;;;;;;19.80;6.80;;;;;;;;;;8269508;28;20094;-64
2021/12/11 18:37:26;;;;;;;12.70;7.30;;;;;;;;;;8280371;28;20024;-65
2021/12/11 18:41:29;;;;;;;14.20;6.78;;;;;;;;;;8279791;28;20065;-64
2021/12/11 18:45:33;;;;;;;10.75;6.38;;;;;;;;;;8280049;28;20056;-64
2021/12/11 18:49:33;;;;;;;13.43;6.68;;;;;;;;;;8281531;28;20148;-64
2021/12/11 18:53:37;;;;;;;12.50;5.78;;;;;;;;;;8279577;28;20880;-64
2021/12/11 18:57:39;;;;;;;8.47;5.43;;;;;;;;;;8278035;28;20056;-65
2021/12/11 19:01:49;;;;;;;11.88;6.03;;;;;;;;;;8276140;28;20069;-65
2021/12/11 19:05:51;;;;;;;12.68;6.03;;;;;;;;;;8281872;28;20120;-64
2021/12/11 19:09:54;;;;;;;13.48;6.80;;;;;;;;;;8280305;28;20534;-64
2021/12/11 19:13:56;;;;;;;10.85;6.20;;;;;;;;;;8279119;28;20441;-64
2021/12/11 19:17:56;;;;;;;11.02;5.35;;;;;;;;;;8278641;28;20045;-64
2021/12/11 19:21:59;;;;;;;14.75;5.90;;;;;;;;;;8276517;28;20149;-64
2021/12/11 19:25:59;;;;;;;13.63;5.72;;;;;;;;;;8274597;28;20521;-64
2021/12/11 19:30:04;;;;;;;11.60;4.82;;;;;;;;;;8276895;28;20399;-64
2021/12/11 19:34:05;;;;;;;14.43;5.47;;;;;;;;;;8277564;28;20359;-64
2021/12/11 19:38:05;;;;;;;12.43;5.32;;;;;;;;;;8281316;28;20037;-64
2021/12/11 19:42:06;;;;;;;11.60;4.90;;;;;;;;;;8279143;28;20465;-64
2021/12/11 19:46:06;;;;;;;13.52;5.22;;;;;;;;;;8282030;28;20937;-65
2021/12/11 19:50:08;;;;;;;11.45;4.82;;;;;;;;;;8288845;28;20527;-64
2021/12/11 19:54:09;;;;;;;10.30;4.25;;;;;;;;;;8287036;28;20030;-65
2021/12/11 19:58:10;;;;;;;9.07;3.60;;;;;;;;;;8279667;28;20095;-64
2021/12/11 20:02:14;;;;;;;8.27;3.83;;;;;;;;;;8285001;28;20612;-64
2021/12/11 20:06:16;;;;;;;6.95;2.95;;;;;;;;;;8286808;28;20025;-64
2021/12/11 20:10:18;;;;;;;11.82;3.78;;;;;;;;;;8282831;28;20963;-64
2021/12/11 20:14:19;;;;;;;6.95;3.10;;;;;;;;;;8283723;28;20140;-64
2021/12/11 20:18:22;;;;;;;18.10;6.93;;;;;;;;;;8285017;28;20519;-64
2021/12/11 20:22:23;;;;;;;12.20;5.43;;;;;;;;;;8283906;28;20040;-64
2021/12/11 20:26:26;;;;;;;7.45;3.30;;;;;;;;;;8285535;28;20103;-65
2021/12/11 20:30:32;;;;;;;9.85;3.90;;;;;;;;;;8284382;28;20033;-65
2021/12/11 20:34:32;;;;;;;9.90;4.13;;;;;;;;;;8286746;28;20021;-64
2021/12/11 20:38:33;;;;;;;12.77;4.90;;;;;;;;;;8285853;28;20033;-65
2021/12/11 20:42:33;;;;;;;12.20;5.32;;;;;;;;;;8281898;28;20022;-64
2021/12/11 20:46:33;;;;;;;13.90;5.10;;;;;;;;;;8283217;28;20037;-65
2021/12/11 20:50:36;;;;;;;9.27;4.88;;;;;;;;;;8283362;28;20105;-64
2021/12/11 20:54:41;;;;;;;9.40;4.70;;;;;;;;;;8282441;28;20037;-64
2021/12/11 20:58:41;;;;;;;12.40;5.32;;;;;;;;;;8282132;28;20029;-66
2021/12/11 21:02:43;;;;;;;9.95;5.32;;;;;;;;;;8283545;28;20561;-64
2021/12/11 21:06:45;;;;;;;11.20;5.35;;;;;;;;;;8283078;28;20774;-64
2021/12/11 21:10:50;;;;;;;15.52;6.70;;;;;;;;;;8283331;28;20871;-64
2021/12/11 21:14:51;;;;;;;11.80;4.90;;;;;;;;;;8278585;28;20651;-64
2021/12/11 21:18:57;;;;;;;14.05;5.25;;;;;;;;;;8281626;28;20090;-64
2021/12/11 21:22:59;;;;;;;15.93;4.70;;;;;;;;;;8281150;28;20126;-64
2021/12/11 21:27:02;;;;;;;10.27;4.70;;;;;;;;;;8280577;28;20348;-64
2021/12/11 21:31:05;;;;;;;8.70;4.95;;;;;;;;;;8280159;28;20132;-64
2021/12/11 21:35:07;;;;;;;14.05;5.55;;;;;;;;;;8282474;28;20596;-64
2021/12/11 21:39:13;;;;;;;8.93;5.07;;;;;;;;;;8283007;28;20376;-64
2021/12/11 21:43:15;;;;;;;10.13;5.15;;;;;;;;;;8281296;28;20025;-64
2021/12/11 21:47:16;;;;;;;11.38;5.05;;;;;;;;;;8280838;28;20045;-64
2021/12/11 21:51:18;;;;;;;17.63;5.88;;;;;;;;;;8283947;28;20511;-64
2021/12/11 21:55:21;;;;;;;13.73;5.72;;;;;;;;;;8281735;28;20506;-64
2021/12/11 21:59:24;;;;;;;11.02;5.45;;;;;;;;;;8281784;28;20393;-64
2021/12/11 22:03:27;;;;;;;10.40;5.53;;;;;;;;;;8279506;28;20061;-64
2021/12/11 22:07:30;;;;;;;11.35;5.72;;;;;;;;;;8283206;28;20033;-64
2021/12/11 22:11:31;;;;;;;14.15;4.70;;;;;;;;;;8279188;28;20392;-64
2021/12/11 22:15:34;;;;;;;13.13;5.25;;;;;;;;;;8272583;28;20437;-64
2021/12/11 22:19:37;;;;;;;9.02;4.60;;;;;;;;;;8280309;28;20496;-64
2021/12/11 22:23:38;;;;;;;7.95;4.45;;;;;;;;;;8281734;28;20029;-64
2021/12/11 22:27:38;;;;;;;6.40;3.65;;;;;;;;;;8278539;28;20026;-64
2021/12/11 22:31:45;;;;;;;9.82;4.22;;;;;;;;;;8278406;28;20161;-64
2021/12/11 22:35:47;;;;;;;7.25;3.97;;;;;;;;;;8279348;28;20517;-64
2021/12/11 22:39:50;;;;;;;10.40;4.30;;;;;;;;;;8279172;28;20294;-64
2021/12/11 22:44:02;;;;;;;11.48;3.78;;;;;;;;;;8278745;28;20026;-64
2021/12/11 22:48:04;;;;;;;12.75;3.67;;;;;;;;;;8276726;28;20041;-64
2021/12/11 22:52:04;;;;;;;10.85;3.70;;;;;;;;;;8280403;28;20493;-64
2021/12/11 22:56:05;;;;;;;6.30;3.50;;;;;;;;;;8277987;28;20461;-64
2021/12/11 23:00:13;;;;;;;7.07;3.25;;;;;;;;;;8279325;28;20153;-64
2021/12/11 23:04:15;;;;;;;7.22;3.10;;;;;;;;;;8277184;28;20440;-65
2021/12/11 23:08:18;;;;;;;5.43;2.95;;;;;;;;;;8279183;28;20151;-64
2021/12/11 23:12:23;;;;;;;5.82;2.53;;;;;;;;;;8279547;28;20064;-64
2021/12/11 23:16:25;;;;;;;8.02;2.88;;;;;;;;;;8276572;28;20111;-64
2021/12/11 23:20:41;;;;;;;6.93;2.85;;;;;;;;;;8278206;28;20033;-64
2021/12/11 23:24:41;;;;;;;7.43;2.83;;;;;;;;;;8279857;28;20516;-64
2021/12/11 23:28:51;;;;;;;12.85;3.30;;;;;;;;;;8278651;28;20029;-64
2021/12/11 23:32:52;;;;;;;5.43;2.67;;;;;;;;;;8277988;28;20128;-64
2021/12/11 23:36:59;;;;;;;8.80;3.00;;;;;;;;;;8275470;28;20057;-64
2021/12/11 23:41:01;;;;;;;14.25;3.17;;;;;;;;;;8280207;28;20040;-64
2021/12/11 23:45:13;;;;;;;7.38;3.47;;;;;;;;;;8280809;28;20094;-65
2021/12/11 23:49:14;;;;;;;9.52;3.40;;;;;;;;;;8284991;28;20116;-64
2021/12/11 23:53:15;;;;;;;8.93;3.78;;;;;;;;;;8283474;28;20475;-64
2021/12/11 23:57:27;;;;;;;11.38;3.38;;;;;;;;;;8280230;28;20131;-64
